Terminal Aerodrome Forecast
Issued by NWS

Current Version | Previous Version | Graphics & Text | Print | Product List | Glossary On
Versions: 1 2 3 4 5 6 7 8 9 10 11 12 13 14 15 16 17 18 19 20 21
000
FTUS41 KILN 011700
TAFLCK
TAF
KLCK 011720Z 0118/0218 01010KT P6SM -RA OVC015
     FM012300 02010KT P6SM VCSH OVC015
     FM020200 03009KT P6SM SCT025 BKN100
     FM021300 05009KT P6SM SCT030 BKN100=

USA.gov is the U.S. government's official web portal to all federal, state and local government web resources and services.